Time;durP1;ratioP1;P1;durP2;ratioP2;P2;SDS_P1;SDS_P2;PMS_P1;PMS_P2;Temp;Humidity;BMP_temperature;BMP_pressure;BME280_temperature;BME280_humidity;BME280_pressure;Samples;Min_cycle;Max_cycle;Signal;HPM_P1;HPM_P2
2023/05/06 00:00:15;;;;;;;12.85;9.95;;;14.70;99.90;;;;;;2091267;28;20033;-76
2023/05/06 00:01:16;;;;;;;13.32;10.35;;;14.70;99.90;;;;;;2085417;28;20032;-76
2023/05/06 00:02:17;;;;;;;16.15;10.50;;;14.70;99.90;;;;;;2088117;28;20033;-76
2023/05/06 00:03:18;;;;;;;16.80;10.32;;;14.70;99.90;;;;;;2087569;28;20123;-77
2023/05/06 00:04:18;;;;;;;16.08;10.52;;;14.70;99.90;;;;;;2089908;28;20526;-76
2023/05/06 00:05:19;;;;;;;12.25;10.35;;;14.70;99.90;;;;;;2089189;28;20033;-75
2023/05/06 00:06:20;;;;;;;11.75;9.95;;;14.60;99.90;;;;;;2089053;28;20040;-77
2023/05/06 00:07:21;;;;;;;14.00;10.80;;;14.60;99.90;;;;;;2079904;28;20606;-75
2023/05/06 00:08:21;;;;;;;15.30;10.90;;;14.60;99.90;;;;;;2072253;28;20033;-76
2023/05/06 00:09:25;;;;;;;13.88;10.85;;;14.50;99.90;;;;;;2078849;28;20029;-75
2023/05/06 00:10:26;;;;;;;16.35;12.27;;;14.50;99.90;;;;;;2094871;28;20059;-78
2023/05/06 00:11:26;;;;;;;15.20;12.25;;;14.50;99.90;;;;;;2093111;28;20037;-77
2023/05/06 00:12:27;;;;;;;16.83;12.45;;;14.50;99.90;;;;;;2087599;28;20021;-82
2023/05/06 00:13:27;;;;;;;15.45;11.63;;;14.50;99.90;;;;;;2084985;28;20055;-77
2023/05/06 00:14:28;;;;;;;14.93;11.20;;;14.40;99.90;;;;;;2090917;28;20421;-77
2023/05/06 00:15:29;;;;;;;16.30;11.30;;;14.40;99.90;;;;;;2083339;28;20033;-76
2023/05/06 00:16:29;;;;;;;15.20;10.60;;;14.40;99.90;;;;;;2085640;28;20033;-78
2023/05/06 00:17:30;;;;;;;10.50;9.40;;;14.30;99.90;;;;;;2087349;28;20016;-77
2023/05/06 00:18:30;;;;;;;15.25;10.40;;;14.30;99.90;;;;;;2090624;28;20047;-77
2023/05/06 00:19:31;;;;;;;14.25;9.90;;;14.30;99.90;;;;;;2087438;28;20055;-76
2023/05/06 00:20:31;;;;;;;11.57;9.75;;;14.30;99.90;;;;;;2088079;28;20033;-78
2023/05/06 00:21:32;;;;;;;12.02;9.75;;;14.20;99.90;;;;;;2088241;28;20013;-76
2023/05/06 00:22:33;;;;;;;12.98;10.18;;;14.20;99.90;;;;;;2089916;28;20472;-76
2023/05/06 00:23:33;;;;;;;12.65;9.65;;;14.20;99.90;;;;;;2088893;28;20087;-77
2023/05/06 00:24:34;;;;;;;12.15;9.60;;;14.20;99.90;;;;;;2089918;28;20039;-70
2023/05/06 00:25:34;;;;;;;14.18;9.88;;;14.20;99.90;;;;;;2089419;28;20051;-71
2023/05/06 00:26:35;;;;;;;12.68;9.82;;;14.20;99.90;;;;;;2088938;28;20107;-70
2023/05/06 00:27:35;;;;;;;14.55;10.10;;;14.20;99.90;;;;;;2089556;28;20442;-72
2023/05/06 00:28:36;;;;;;;12.30;9.80;;;14.20;99.90;;;;;;2087200;28;20554;-71
2023/05/06 00:29:37;;;;;;;13.27;10.55;;;14.20;99.90;;;;;;2087467;28;20223;-71
2023/05/06 00:30:37;;;;;;;13.13;10.43;;;14.20;99.90;;;;;;2080263;28;20041;-71
2023/05/06 00:31:38;;;;;;;13.65;10.05;;;14.20;99.90;;;;;;2077608;28;20534;-71
2023/05/06 00:32:38;;;;;;;12.07;10.25;;;14.20;99.90;;;;;;2088361;28;20028;-70
2023/05/06 00:33:40;;;;;;;15.15;10.75;;;14.20;99.90;;;;;;2089127;28;20078;-70
2023/05/06 00:34:41;;;;;;;12.68;10.07;;;14.20;99.90;;;;;;2089248;28;20028;-71
2023/05/06 00:35:42;;;;;;;13.25;10.75;;;14.10;99.90;;;;;;2088791;28;20424;-71
2023/05/06 00:36:42;;;;;;;11.95;9.88;;;14.10;99.90;;;;;;2089874;28;20052;-71
2023/05/06 00:37:45;;;;;;;15.23;10.43;;;14.10;99.90;;;;;;2088026;28;20582;-72
2023/05/06 00:38:46;;;;;;;13.38;10.18;;;14.10;99.90;;;;;;2088114;28;20155;-71
2023/05/06 00:39:46;;;;;;;13.55;10.32;;;14.00;99.90;;;;;;2088425;28;20112;-71
2023/05/06 00:40:47;;;;;;;12.45;10.35;;;14.00;99.90;;;;;;2090917;28;20492;-71
2023/05/06 00:41:47;;;;;;;12.95;10.25;;;14.00;99.90;;;;;;2088889;28;20852;-71
2023/05/06 00:42:48;;;;;;;13.80;9.80;;;14.00;99.90;;;;;;2089676;28;20036;-71
2023/05/06 00:43:48;;;;;;;14.20;10.07;;;14.00;99.90;;;;;;2105076;28;20134;-70
2023/05/06 00:44:49;;;;;;;13.45;10.45;;;14.00;99.90;;;;;;2096739;28;20082;-70
2023/05/06 00:45:50;;;;;;;11.40;10.20;;;14.00;99.90;;;;;;2080434;28;20039;-70
2023/05/06 00:46:51;;;;;;;12.05;10.18;;;14.00;99.90;;;;;;2087918;28;20035;-71
2023/05/06 00:47:52;;;;;;;12.18;9.95;;;14.00;99.90;;;;;;2086301;28;20408;-70
2023/05/06 00:48:53;;;;;;;14.70;10.10;;;14.00;99.90;;;;;;2085958;28;20181;-71
2023/05/06 00:49:54;;;;;;;11.88;10.00;;;14.00;99.90;;;;;;2085852;28;20028;-71
2023/05/06 00:50:55;;;;;;;13.80;10.10;;;13.90;99.90;;;;;;2079937;28;20195;-70
2023/05/06 00:51:57;;;;;;;12.82;10.52;;;13.90;99.90;;;;;;2082867;28;20130;-71
2023/05/06 00:52:58;;;;;;;14.48;10.63;;;13.90;99.90;;;;;;2086995;28;20079;-70
2023/05/06 00:54:00;;;;;;;13.57;10.25;;;13.90;99.90;;;;;;2086438;28;20447;-70
2023/05/06 00:55:01;;;;;;;14.52;10.93;;;13.90;99.90;;;;;;2086805;28;20081;-70
2023/05/06 00:56:02;;;;;;;14.65;10.80;;;13.90;99.90;;;;;;2089773;28;20027;-70
2023/05/06 00:57:03;;;;;;;15.00;10.98;;;13.90;99.90;;;;;;2086328;28;20328;-71
2023/05/06 00:58:04;;;;;;;15.65;11.13;;;13.90;99.90;;;;;;2085986;28;20541;-70
2023/05/06 00:59:05;;;;;;;12.98;10.90;;;13.90;99.90;;;;;;2086283;28;20033;-70
2023/05/06 01:00:07;;;;;;;13.48;10.63;;;13.80;99.90;;;;;;2089094;28;20029;-71
2023/05/06 01:01:07;;;;;;;15.13;11.45;;;13.80;99.90;;;;;;2091495;28;20040;-71
2023/05/06 01:02:08;;;;;;;13.63;11.02;;;13.80;99.90;;;;;;2091560;28;20285;-70
2023/05/06 01:03:08;;;;;;;12.88;10.63;;;13.80;99.90;;;;;;2082515;28;20147;-70
2023/05/06 01:04:09;;;;;;;13.90;10.95;;;13.80;99.90;;;;;;2081737;28;20115;-72
2023/05/06 01:05:10;;;;;;;14.00;11.23;;;13.70;99.90;;;;;;2089746;28;20036;-72
2023/05/06 01:06:23;;;;;;;14.55;11.40;;;13.70;99.90;;;;;;2086590;28;20020;-70
2023/05/06 01:07:38;;;;;;;14.95;11.15;;;13.70;99.90;;;;;;2077786;28;20021;-70
2023/05/06 01:08:50;;;;;;;12.90;10.77;;;13.70;99.90;;;;;;2076957;28;20025;-69
2023/05/06 01:10:21;;;;;;;13.60;11.50;;;13.70;99.90;;;;;;2097447;28;20024;-70
2023/05/06 01:11:57;;;;;;;14.23;11.50;;;13.70;99.90;;;;;;2096041;28;20441;-70
2023/05/06 01:13:26;;;;;;;16.98;11.63;;;13.70;99.90;;;;;;2077587;28;20064;-70
2023/05/06 01:14:42;;;;;;;15.02;11.38;;;13.70;99.90;;;;;;2068921;28;20068;-71
2023/05/06 01:15:45;;;;;;;13.55;10.70;;;13.70;99.90;;;;;;2097526;28;20063;-70
2023/05/06 01:16:51;;;;;;;15.55;11.30;;;13.60;99.90;;;;;;2100642;28;20433;-70
2023/05/06 01:17:53;;;;;;;14.60;11.07;;;13.70;99.90;;;;;;2087984;28;20028;-70
2023/05/06 01:18:54;;;;;;;14.18;10.73;;;13.70;99.90;;;;;;2089696;28;20078;-70
2023/05/06 01:19:58;;;;;;;12.90;10.70;;;13.70;99.90;;;;;;2087766;28;20029;-70
2023/05/06 01:21:00;;;;;;;14.48;11.20;;;13.70;99.90;;;;;;2078176;28;20103;-71
2023/05/06 01:22:05;;;;;;;16.73;11.43;;;13.70;99.90;;;;;;2086341;28;20509;-70
2023/05/06 01:23:09;;;;;;;13.80;11.23;;;13.70;99.90;;;;;;2087120;28;20032;-70
2023/05/06 01:24:10;;;;;;;12.80;11.38;;;13.70;99.90;;;;;;2086363;28;20084;-70
2023/05/06 01:25:21;;;;;;;13.85;10.93;;;13.70;99.90;;;;;;2087985;28;20100;-70
2023/05/06 01:26:22;;;;;;;14.68;11.55;;;13.70;99.90;;;;;;2096709;28;20624;-68
2023/05/06 01:27:23;;;;;;;14.85;11.40;;;13.70;99.90;;;;;;2087756;28;20080;-70
2023/05/06 01:28:24;;;;;;;15.48;11.35;;;13.70;99.90;;;;;;2087283;28;20086;-71
2023/05/06 01:29:24;;;;;;;14.23;11.00;;;13.70;99.90;;;;;;2087431;28;20020;-70
2023/05/06 01:30:31;;;;;;;12.85;11.30;;;13.70;99.90;;;;;;2088503;28;20036;-71
2023/05/06 01:31:47;;;;;;;13.73;10.85;;;13.70;99.90;;;;;;2084881;28;20105;-71
2023/05/06 01:33:06;;;;;;;14.23;11.40;;;13.70;99.90;;;;;;2086784;28;20036;-70
2023/05/06 01:34:17;;;;;;;17.58;12.48;;;13.70;99.90;;;;;;2087244;28;20302;-71
2023/05/06 01:35:35;;;;;;;16.27;13.13;;;13.70;99.90;;;;;;2087242;28;20143;-70
2023/05/06 01:37:00;;;;;;;16.23;12.55;;;13.70;99.90;;;;;;2086960;28;20199;-70
2023/05/06 01:38:40;;;;;;;16.02;12.23;;;13.70;99.90;;;;;;2086776;28;20025;-70
2023/05/06 01:39:44;;;;;;;15.73;12.82;;;13.70;99.90;;;;;;2101498;28;20070;-70
2023/05/06 01:40:53;;;;;;;15.60;12.57;;;13.70;99.90;;;;;;2103029;28;20109;-70
2023/05/06 01:41:56;;;;;;;15.52;12.48;;;13.70;99.90;;;;;;2087228;28;20123;-71
2023/05/06 01:42:59;;;;;;;16.67;12.98;;;13.70;99.90;;;;;;2087378;28;20111;-71
2023/05/06 01:44:00;;;;;;;14.82;12.13;;;13.70;99.90;;;;;;2093158;28;20051;-70
2023/05/06 01:45:05;;;;;;;16.65;12.43;;;13.70;99.90;;;;;;2082839;28;23137;-71
2023/05/06 01:46:10;;;;;;;14.75;12.43;;;13.70;99.90;;;;;;2076511;28;20087;-70
2023/05/06 01:47:12;;;;;;;15.00;12.13;;;13.70;99.90;;;;;;2090288;28;20119;-70
2023/05/06 01:48:13;;;;;;;18.50;13.80;;;13.70;99.90;;;;;;2085826;28;20033;-69
2023/05/06 01:49:15;;;;;;;14.82;13.00;;;13.70;99.90;;;;;;2082912;28;20033;-70
2023/05/06 01:50:16;;;;;;;16.40;12.55;;;13.70;99.90;;;;;;2086607;28;20205;-71
2023/05/06 01:51:17;;;;;;;15.93;12.57;;;13.70;99.90;;;;;;2083724;28;20033;-71
2023/05/06 01:52:20;;;;;;;15.30;13.35;;;13.70;99.90;;;;;;2094841;28;20033;-70
2023/05/06 01:53:21;;;;;;;18.42;14.00;;;13.70;99.90;;;;;;2094268;28;20040;-71
2023/05/06 01:54:21;;;;;;;15.50;12.98;;;13.70;99.90;;;;;;2086361;28;20166;-69
2023/05/06 01:55:22;;;;;;;16.65;13.13;;;13.70;99.90;;;;;;2086456;28;20242;-70
2023/05/06 01:56:22;;;;;;;16.52;13.38;;;13.70;99.90;;;;;;2086264;28;20038;-70
2023/05/06 01:57:23;;;;;;;16.48;12.85;;;13.70;99.90;;;;;;2086299;28;20083;-70
2023/05/06 01:58:24;;;;;;;15.70;13.10;;;13.70;99.90;;;;;;2087793;28;20055;-70
2023/05/06 01:59:25;;;;;;;16.52;13.15;;;13.70;99.90;;;;;;2085346;28;20372;-70
2023/05/06 02:00:26;;;;;;;14.40;12.50;;;13.70;99.90;;;;;;2086371;28;20036;-70
2023/05/06 02:01:26;;;;;;;17.20;13.20;;;13.70;99.90;;;;;;2085234;28;20025;-69
2023/05/06 02:02:27;;;;;;;15.55;12.43;;;13.70;99.90;;;;;;2088193;28;20454;-69
2023/05/06 02:03:27;;;;;;;17.38;12.95;;;13.80;99.90;;;;;;2087110;28;20025;-71
2023/05/06 02:04:28;;;;;;;15.43;13.10;;;13.80;99.90;;;;;;2086884;28;20020;-71
2023/05/06 02:05:29;;;;;;;16.75;12.73;;;13.80;99.90;;;;;;2075692;28;20017;-69
2023/05/06 02:06:31;;;;;;;17.60;12.95;;;13.70;99.90;;;;;;2095206;28;20129;-69
2023/05/06 02:07:32;;;;;;;15.73;12.95;;;13.70;99.90;;;;;;2095959;28;20034;-70
2023/05/06 02:08:33;;;;;;;14.98;13.38;;;13.70;99.90;;;;;;2083254;28;20032;-70
2023/05/06 02:09:34;;;;;;;18.33;14.55;;;13.70;99.90;;;;;;2085315;28;20025;-70
2023/05/06 02:10:36;;;;;;;16.75;14.10;;;13.70;99.90;;;;;;2077417;28;20025;-71
2023/05/06 02:11:40;;;;;;;14.85;13.25;;;13.70;99.90;;;;;;2087383;28;20078;-69
2023/05/06 02:12:41;;;;;;;16.42;13.25;;;13.70;99.90;;;;;;2078743;28;20432;-71
2023/05/06 02:13:42;;;;;;;16.02;13.02;;;13.70;99.90;;;;;;2094794;28;20023;-70
2023/05/06 02:14:43;;;;;;;14.88;13.05;;;13.70;99.90;;;;;;2081603;28;20458;-71
2023/05/06 02:15:45;;;;;;;16.45;12.90;;;13.70;99.90;;;;;;2077929;28;20025;-70
2023/05/06 02:16:50;;;;;;;15.43;13.02;;;13.70;99.90;;;;;;2083164;28;20032;-69
2023/05/06 02:17:50;;;;;;;19.02;13.30;;;13.70;99.90;;;;;;2086689;28;20618;-69
2023/05/06 02:18:51;;;;;;;16.60;12.57;;;13.70;99.90;;;;;;2079701;28;20033;-70
2023/05/06 02:19:51;;;;;;;15.38;12.95;;;13.60;99.90;;;;;;2085607;28;20645;-71
2023/05/06 02:20:52;;;;;;;18.30;12.80;;;13.60;99.90;;;;;;2085284;28;20504;-70
2023/05/06 02:21:52;;;;;;;14.82;12.63;;;13.60;99.90;;;;;;2077267;28;20516;-70
2023/05/06 02:22:53;;;;;;;15.55;12.55;;;13.60;99.90;;;;;;2092386;28;20124;-69
2023/05/06 02:23:53;;;;;;;17.38;13.15;;;13.60;99.90;;;;;;2103441;28;20055;-70
2023/05/06 02:24:54;;;;;;;14.35;12.65;;;13.60;99.90;;;;;;2082972;28;20029;-70
2023/05/06 02:25:56;;;;;;;17.30;13.35;;;13.60;99.90;;;;;;2086734;28;20036;-71
2023/05/06 02:26:57;;;;;;;15.45;12.65;;;13.50;99.90;;;;;;2088674;28;20744;-70
2023/05/06 02:27:58;;;;;;;15.48;12.85;;;13.50;99.90;;;;;;2086052;28;20147;-70
2023/05/06 02:28:58;;;;;;;15.52;12.45;;;13.50;99.90;;;;;;2085796;28;20035;-70
2023/05/06 02:29:59;;;;;;;15.30;12.95;;;13.50;99.90;;;;;;2085102;28;20397;-69
2023/05/06 02:30:59;;;;;;;16.15;13.65;;;13.50;99.90;;;;;;2088439;28;20037;-70
2023/05/06 02:32:00;;;;;;;15.75;13.05;;;13.50;99.90;;;;;;2087023;28;21889;-69
2023/05/06 02:33:01;;;;;;;16.13;12.85;;;13.50;99.90;;;;;;2087017;28;20023;-71
2023/05/06 02:34:01;;;;;;;15.68;12.90;;;13.50;99.90;;;;;;2077937;28;20041;-71
2023/05/06 02:35:02;;;;;;;14.82;12.35;;;13.50;99.90;;;;;;2086112;28;20099;-70
2023/05/06 02:36:03;;;;;;;15.18;13.10;;;13.50;99.90;;;;;;2089100;28;20021;-71
2023/05/06 02:37:04;;;;;;;16.35;12.60;;;13.40;99.90;;;;;;2083125;28;20021;-70
2023/05/06 02:38:04;;;;;;;16.88;13.07;;;13.40;99.90;;;;;;2085079;28;20047;-71
2023/05/06 02:39:05;;;;;;;18.33;13.60;;;13.50;99.90;;;;;;2085177;28;20052;-71
2023/05/06 02:40:07;;;;;;;16.02;12.68;;;13.40;99.90;;;;;;2088317;28;20025;-70
2023/05/06 02:41:09;;;;;;;14.70;12.90;;;13.40;99.90;;;;;;2080215;28;20562;-70
2023/05/06 02:42:13;;;;;;;15.80;12.45;;;13.40;99.90;;;;;;2078564;28;20029;-76
2023/05/06 02:43:14;;;;;;;14.48;12.18;;;13.40;99.90;;;;;;2086493;28;20229;-75
2023/05/06 02:44:14;;;;;;;13.65;12.23;;;13.40;99.90;;;;;;2078137;28;20099;-69
2023/05/06 02:45:15;;;;;;;16.85;13.18;;;13.50;99.90;;;;;;2088102;28;20473;-74
2023/05/06 02:46:16;;;;;;;13.98;12.48;;;13.50;99.90;;;;;;2085000;28;20086;-73
2023/05/06 02:47:16;;;;;;;14.80;12.57;;;13.50;99.90;;;;;;2076858;28;20451;-71
2023/05/06 02:48:18;;;;;;;15.88;12.50;;;13.50;99.90;;;;;;2076827;28;20048;-73
2023/05/06 02:49:19;;;;;;;14.98;12.93;;;13.40;99.90;;;;;;2079558;28;20040;-72
2023/05/06 02:50:20;;;;;;;15.30;12.65;;;13.50;99.90;;;;;;2086064;28;20021;-72
2023/05/06 02:51:20;;;;;;;14.65;12.32;;;13.50;99.90;;;;;;2086214;28;20114;-73
2023/05/06 02:52:21;;;;;;;14.07;12.52;;;13.50;99.90;;;;;;2087378;28;20120;-72
2023/05/06 02:53:21;;;;;;;14.93;12.27;;;13.50;99.90;;;;;;2086427;28;20355;-71
2023/05/06 02:54:22;;;;;;;14.68;12.02;;;13.50;99.90;;;;;;2088190;28;20460;-72
2023/05/06 02:55:22;;;;;;;14.05;11.57;;;13.50;99.90;;;;;;2085542;28;20037;-73
2023/05/06 02:56:23;;;;;;;13.88;12.00;;;13.50;99.90;;;;;;2085725;28;20068;-72
2023/05/06 02:57:24;;;;;;;14.50;12.82;;;13.60;99.90;;;;;;2087267;28;20021;-73
2023/05/06 02:58:25;;;;;;;15.10;12.15;;;13.60;99.90;;;;;;2088540;28;20075;-73
2023/05/06 02:59:25;;;;;;;15.63;12.02;;;13.60;99.90;;;;;;2078236;28;20555;-73
2023/05/06 03:00:26;;;;;;;15.18;12.32;;;13.60;99.90;;;;;;2089061;28;20036;-72
2023/05/06 03:01:26;;;;;;;15.02;12.73;;;13.50;99.90;;;;;;2079698;28;20131;-73
2023/05/06 03:02:27;;;;;;;16.15;13.13;;;13.60;99.90;;;;;;2081512;28;20417;-73
2023/05/06 03:03:28;;;;;;;16.58;13.82;;;13.50;99.90;;;;;;2088108;28;20552;-72
2023/05/06 03:04:28;;;;;;;17.38;13.43;;;13.60;99.90;;;;;;2084896;28;20029;-72
2023/05/06 03:05:29;;;;;;;16.08;12.52;;;13.60;99.90;;;;;;2093081;28;20228;-72
2023/05/06 03:06:30;;;;;;;14.88;13.10;;;13.60;99.90;;;;;;2101843;28;20042;-71
2023/05/06 03:07:31;;;;;;;18.10;13.65;;;13.60;99.90;;;;;;2086734;28;20028;-72
2023/05/06 03:08:32;;;;;;;16.92;14.07;;;13.60;99.90;;;;;;2086487;28;20028;-72
2023/05/06 03:09:32;;;;;;;16.27;13.15;;;13.60;99.90;;;;;;2083863;28;20431;-73
2023/05/06 03:10:33;;;;;;;15.73;13.20;;;13.60;99.90;;;;;;2084229;28;20021;-73
2023/05/06 03:11:35;;;;;;;15.55;13.13;;;13.60;99.90;;;;;;2108046;28;20069;-71
2023/05/06 03:12:38;;;;;;;15.43;13.18;;;13.60;99.90;;;;;;2092599;28;20190;-72
2023/05/06 03:13:39;;;;;;;15.95;13.10;;;13.60;99.90;;;;;;2084963;28;20063;-71
2023/05/06 03:14:40;;;;;;;14.65;12.40;;;13.60;99.90;;;;;;2090299;28;20025;-72
2023/05/06 03:15:40;;;;;;;15.40;12.70;;;13.60;99.90;;;;;;2091527;28;20025;-74
2023/05/06 03:16:41;;;;;;;14.35;12.00;;;13.60;99.90;;;;;;2078665;28;20024;-72
2023/05/06 03:17:42;;;;;;;13.05;11.68;;;13.60;99.90;;;;;;2079207;28;20048;-72
2023/05/06 03:18:43;;;;;;;14.68;11.77;;;13.60;99.90;;;;;;2073594;28;20052;-72
2023/05/06 03:19:44;;;;;;;14.15;12.35;;;13.60;99.90;;;;;;2088200;28;20020;-72
2023/05/06 03:20:47;;;;;;;14.82;12.13;;;13.70;99.90;;;;;;2095448;28;20493;-73
2023/05/06 03:21:48;;;;;;;14.18;11.80;;;13.70;99.90;;;;;;2089377;28;20025;-73
2023/05/06 03:22:51;;;;;;;13.95;12.45;;;13.70;99.90;;;;;;2085470;28;20035;-71
2023/05/06 03:23:53;;;;;;;15.35;12.02;;;13.70;99.90;;;;;;2089612;28;20039;-71
2023/05/06 03:24:56;;;;;;;13.80;12.25;;;13.70;99.90;;;;;;2090304;28;20423;-73
2023/05/06 03:25:58;;;;;;;16.65;12.65;;;13.70;99.90;;;;;;2093601;28;20552;-73
2023/05/06 03:26:58;;;;;;;13.68;12.15;;;13.70;99.90;;;;;;2087218;28;20037;-73
2023/05/06 03:27:59;;;;;;;14.85;12.27;;;13.70;99.90;;;;;;2081144;28;20039;-73
2023/05/06 03:29:01;;;;;;;15.23;11.77;;;13.70;99.90;;;;;;2081811;28;20024;-71
2023/05/06 03:30:02;;;;;;;12.82;11.43;;;13.70;99.90;;;;;;2088931;28;20048;-72
2023/05/06 03:31:03;;;;;;;14.10;12.35;;;13.70;99.90;;;;;;2086319;28;20025;-71
2023/05/06 03:32:05;;;;;;;13.75;12.05;;;13.70;99.90;;;;;;2079305;28;20431;-72
2023/05/06 03:33:11;;;;;;;14.02;12.52;;;13.70;99.90;;;;;;2074723;28;20480;-72
2023/05/06 03:34:12;;;;;;;15.05;12.63;;;13.70;99.90;;;;;;2076340;28;20099;-72
2023/05/06 03:35:13;;;;;;;14.77;12.45;;;13.70;99.90;;;;;;2077022;28;20033;-73
2023/05/06 03:36:16;;;;;;;15.07;12.27;;;13.70;99.90;;;;;;2076854;28;20037;-73
2023/05/06 03:37:19;;;;;;;15.15;12.38;;;13.70;99.90;;;;;;2087283;28;20494;-73
2023/05/06 03:38:25;;;;;;;15.15;12.52;;;13.70;99.90;;;;;;2079313;28;20086;-73
2023/05/06 03:39:32;;;;;;;16.67;13.55;;;13.70;99.90;;;;;;2083273;28;20044;-73
2023/05/06 03:40:34;;;;;;;13.68;12.25;;;13.70;99.90;;;;;;2078741;28;20488;-72
2023/05/06 03:41:35;;;;;;;15.45;12.88;;;13.70;99.90;;;;;;2082926;28;20087;-72
2023/05/06 03:42:36;;;;;;;14.18;12.65;;;13.70;99.90;;;;;;2085825;28;20029;-71
2023/05/06 03:43:37;;;;;;;14.70;12.30;;;13.70;99.90;;;;;;2086338;28;20024;-72
2023/05/06 03:44:39;;;;;;;16.25;12.73;;;13.70;99.90;;;;;;2079201;28;20017;-72
2023/05/06 03:45:39;;;;;;;14.70;12.43;;;13.80;99.90;;;;;;2084706;28;20039;-72
2023/05/06 03:46:40;;;;;;;16.00;12.70;;;13.80;99.90;;;;;;2084352;28;20063;-72
2023/05/06 03:47:41;;;;;;;14.85;13.07;;;13.80;99.90;;;;;;2085550;28;20094;-73
2023/05/06 03:48:43;;;;;;;17.00;13.38;;;13.80;99.90;;;;;;2087883;28;20020;-71
2023/05/06 03:49:47;;;;;;;20.05;15.98;;;13.80;99.90;;;;;;2086162;28;20219;-72
2023/05/06 03:50:48;;;;;;;18.00;15.02;;;13.70;99.90;;;;;;2081846;28;20167;-73
2023/05/06 03:51:49;;;;;;;16.27;14.20;;;13.70;99.90;;;;;;2087904;28;20017;-72
2023/05/06 03:52:51;;;;;;;15.50;13.35;;;13.70;99.90;;;;;;2086304;28;20031;-73
2023/05/06 03:53:53;;;;;;;14.60;12.60;;;13.70;99.90;;;;;;2072972;28;20045;-72
2023/05/06 03:54:54;;;;;;;14.98;12.55;;;13.70;99.90;;;;;;2070772;28;20026;-73
2023/05/06 03:55:55;;;;;;;14.85;12.48;;;13.70;99.90;;;;;;2076462;28;20037;-73
2023/05/06 03:56:56;;;;;;;16.10;13.57;;;13.80;99.90;;;;;;2088952;28;20108;-73
2023/05/06 03:57:57;;;;;;;16.80;12.85;;;13.80;99.90;;;;;;2087394;28;20052;-73
2023/05/06 03:58:57;;;;;;;16.75;12.98;;;13.80;99.90;;;;;;2091328;28;20024;-73
2023/05/06 04:00:00;;;;;;;15.82;12.88;;;13.80;99.90;;;;;;2084793;28;20021;-73
2023/05/06 04:01:01;;;;;;;15.98;12.63;;;13.80;99.90;;;;;;2091727;28;20082;-72
2023/05/06 04:02:02;;;;;;;15.77;13.43;;;13.80;99.90;;;;;;2093832;28;20501;-73
2023/05/06 04:03:03;;;;;;;23.45;16.38;;;13.80;99.90;;;;;;2086099;28;20064;-72
2023/05/06 04:04:10;;;;;;;16.20;14.00;;;13.80;99.90;;;;;;2071840;28;20033;-73
2023/05/06 04:05:10;;;;;;;17.52;14.57;;;13.70;99.90;;;;;;2085747;28;20169;-72
2023/05/06 04:06:11;;;;;;;15.95;13.55;;;13.70;99.90;;;;;;2092935;28;20071;-72
2023/05/06 04:07:11;;;;;;;14.88;12.77;;;13.70;99.90;;;;;;2076323;28;20111;-72
2023/05/06 04:08:12;;;;;;;14.95;12.73;;;13.80;99.90;;;;;;2078920;28;20319;-72
2023/05/06 04:09:13;;;;;;;14.27;12.30;;;13.80;99.90;;;;;;2075438;28;20120;-73
2023/05/06 04:10:14;;;;;;;15.30;13.00;;;13.80;99.90;;;;;;2086455;28;20469;-73
2023/05/06 04:11:17;;;;;;;14.68;13.07;;;13.80;99.90;;;;;;2079221;28;20095;-73
2023/05/06 04:12:19;;;;;;;14.10;12.60;;;13.80;99.90;;;;;;2085835;28;20064;-73
2023/05/06 04:13:21;;;;;;;14.07;12.57;;;13.80;99.90;;;;;;2079476;28;20071;-73
2023/05/06 04:14:21;;;;;;;15.95;13.48;;;13.80;99.90;;;;;;2084327;28;20042;-73
2023/05/06 04:15:23;;;;;;;16.75;13.65;;;13.80;99.90;;;;;;2082059;28;20527;-72
2023/05/06 04:16:23;;;;;;;19.00;15.30;;;13.80;99.90;;;;;;2075605;28;20077;-72
2023/05/06 04:17:24;;;;;;;16.95;15.10;;;13.80;99.90;;;;;;2079412;28;20036;-72
2023/05/06 04:18:24;;;;;;;17.95;14.90;;;13.70;99.90;;;;;;2088764;28;20059;-73
2023/05/06 04:19:33;;;;;;;17.92;14.50;;;13.70;99.90;;;;;;2083298;28;20040;-73
2023/05/06 04:20:34;;;;;;;18.98;14.90;;;13.60;99.90;;;;;;2086531;28;20434;-72
2023/05/06 04:21:35;;;;;;;15.88;14.10;;;13.60;99.90;;;;;;2079326;28;20036;-74
2023/05/06 04:22:40;;;;;;;16.95;13.15;;;13.60;99.90;;;;;;2087572;28;20097;-72
2023/05/06 04:23:41;;;;;;;17.63;13.40;;;13.60;99.90;;;;;;2088382;28;20069;-72
2023/05/06 04:24:44;;;;;;;14.32;12.55;;;13.60;99.90;;;;;;2086126;28;20490;-73
2023/05/06 04:25:49;;;;;;;14.15;12.32;;;13.60;99.90;;;;;;2086722;28;20082;-73
2023/05/06 04:26:51;;;;;;;14.80;12.27;;;13.70;99.90;;;;;;2086434;28;20159;-72
2023/05/06 04:27:53;;;;;;;14.45;12.20;;;13.70;99.90;;;;;;2078588;28;20069;-72
2023/05/06 04:28:55;;;;;;;15.32;13.02;;;13.70;99.90;;;;;;2090657;28;20523;-73
2023/05/06 04:29:56;;;;;;;16.17;13.80;;;13.70;99.90;;;;;;2081992;28;20057;-72
2023/05/06 04:30:57;;;;;;;16.83;15.02;;;13.80;99.90;;;;;;2071661;28;20051;-73
2023/05/06 04:32:05;;;;;;;18.58;14.43;;;13.70;99.90;;;;;;2083923;28;20151;-72
2023/05/06 04:33:08;;;;;;;14.93;13.07;;;13.70;99.90;;;;;;2079790;28;20032;-72
2023/05/06 04:34:10;;;;;;;14.57;12.68;;;13.70;99.90;;;;;;2074645;28;20475;-73
2023/05/06 04:35:11;;;;;;;14.65;12.77;;;13.70;99.90;;;;;;2089227;28;20126;-71
2023/05/06 04:36:13;;;;;;;17.75;13.85;;;13.80;99.90;;;;;;2078988;28;20492;-71
2023/05/06 04:37:20;;;;;;;17.52;13.50;;;13.80;99.90;;;;;;2068063;28;20032;-71
2023/05/06 04:38:36;;;;;;;14.57;12.07;;;13.80;99.90;;;;;;2081163;28;20029;-72
2023/05/06 04:39:38;;;;;;;14.93;12.93;;;13.80;99.90;;;;;;2089081;28;20032;-72
2023/05/06 04:40:39;;;;;;;15.95;13.55;;;13.90;99.90;;;;;;2080128;28;20052;-71
2023/05/06 04:41:40;;;;;;;15.38;13.40;;;13.90;99.90;;;;;;2083788;28;20021;-73
2023/05/06 04:42:41;;;;;;;15.07;13.30;;;13.90;99.90;;;;;;2075280;28;20029;-72
2023/05/06 04:43:47;;;;;;;13.38;11.98;;;13.90;99.90;;;;;;2087303;28;20025;-71
2023/05/06 04:44:53;;;;;;;13.75;12.15;;;13.90;99.90;;;;;;2094073;28;20032;-73
2023/05/06 04:45:58;;;;;;;16.40;13.43;;;13.90;99.90;;;;;;2078900;28;20527;-72
2023/05/06 04:47:03;;;;;;;15.60;12.95;;;14.00;99.90;;;;;;2092820;28;20028;-73
2023/05/06 04:48:05;;;;;;;16.90;12.77;;;14.00;99.90;;;;;;2080878;28;20047;-73
2023/05/06 04:49:06;;;;;;;17.75;12.80;;;14.00;99.90;;;;;;2062991;28;20096;-72
2023/05/06 04:50:07;;;;;;;16.13;13.68;;;14.00;99.90;;;;;;2079005;28;20087;-72
2023/05/06 04:51:08;;;;;;;14.40;12.90;;;14.00;99.90;;;;;;2089027;28;20056;-72
2023/05/06 04:52:09;;;;;;;14.60;12.98;;;14.00;99.90;;;;;;2092163;28;20032;-73
2023/05/06 04:53:10;;;;;;;14.65;13.02;;;14.00;99.90;;;;;;2069613;28;20033;-73
2023/05/06 04:54:10;;;;;;;14.82;12.57;;;14.00;99.90;;;;;;2074676;28;20045;-72
2023/05/06 04:55:16;;;;;;;15.00;12.50;;;14.00;99.90;;;;;;2083609;28;20120;-73
2023/05/06 04:56:21;;;;;;;14.93;12.70;;;14.10;99.90;;;;;;2083084;28;20040;-74
2023/05/06 04:57:23;;;;;;;14.95;12.32;;;14.00;99.90;;;;;;2079934;28;20103;-73
2023/05/06 04:58:26;;;;;;;15.70;12.98;;;14.10;99.90;;;;;;2071632;28;20510;-73
2023/05/06 04:59:27;;;;;;;15.27;12.95;;;14.00;99.90;;;;;;2083140;28;20667;-72
2023/05/06 05:00:28;;;;;;;15.77;13.18;;;14.10;99.90;;;;;;2076222;28;20010;-73
2023/05/06 05:01:28;;;;;;;14.68;12.93;;;14.10;99.90;;;;;;2064443;28;20120;-75
2023/05/06 05:02:29;;;;;;;14.32;12.35;;;14.10;99.90;;;;;;2070025;28;20024;-72
2023/05/06 05:03:30;;;;;;;16.98;14.20;;;14.10;99.90;;;;;;2085946;28;20047;-73
2023/05/06 05:04:32;;;;;;;14.80;13.23;;;14.10;99.90;;;;;;2086754;28;20682;-73
2023/05/06 05:05:33;;;;;;;15.75;13.48;;;14.10;99.90;;;;;;2086194;28;20033;-73
2023/05/06 05:06:34;;;;;;;15.27;13.35;;;14.10;99.90;;;;;;2093054;28;20052;-72
2023/05/06 05:07:35;;;;;;;15.73;13.43;;;14.10;99.90;;;;;;2091034;28;20028;-73
2023/05/06 05:08:36;;;;;;;15.43;13.38;;;14.20;99.90;;;;;;2080142;28;20695;-73
2023/05/06 05:09:37;;;;;;;14.95;13.35;;;14.20;99.90;;;;;;2078820;28;20076;-72
2023/05/06 05:10:42;;;;;;;17.90;15.35;;;14.20;99.90;;;;;;2087003;28;20067;-72
2023/05/06 05:11:43;;;;;;;17.83;15.10;;;14.20;99.90;;;;;;2092887;28;20028;-74
2023/05/06 05:12:45;;;;;;;19.67;14.77;;;14.30;99.90;;;;;;2089121;28;20167;-72
2023/05/06 05:13:45;;;;;;;17.25;15.43;;;14.30;99.90;;;;;;2089012;28;20023;-71
2023/05/06 05:14:46;;;;;;;16.63;14.55;;;14.30;99.90;;;;;;2099042;28;20035;-73
2023/05/06 05:15:47;;;;;;;16.60;14.38;;;14.30;99.90;;;;;;2098992;28;20709;-73
2023/05/06 05:16:49;;;;;;;18.02;14.10;;;14.30;99.90;;;;;;2084092;28;20028;-73